sensor_id;sensor_type;location;lat;lon;timestamp;P1;durP1;ratioP1;P2;durP2;ratioP2
5006;SDS011;2522;50.972;11.046;2022-08-25T03:32:02;13.30;;;7.40;;
5006;SDS011;2522;50.972;11.046;2022-08-25T03:34:30;11.50;;;7.30;;
5006;SDS011;2522;50.972;11.046;2022-08-25T03:36:57;20.77;;;8.20;;
5006;SDS011;2522;50.972;11.046;2022-08-25T03:39:25;16.47;;;8.00;;
5006;SDS011;2522;50.972;11.046;2022-08-25T03:41:53;14.13;;;7.33;;
5006;SDS011;2522;50.972;11.046;2022-08-25T03:44:19;11.57;;;7.37;;
5006;SDS011;2522;50.972;11.046;2022-08-25T03:46:47;15.03;;;8.50;;
5006;SDS011;2522;50.972;11.046;2022-08-25T03:49:18;15.10;;;8.13;;
5006;SDS011;2522;50.972;11.046;2022-08-25T03:51:47;14.40;;;8.03;;
5006;SDS011;2522;50.972;11.046;2022-08-25T03:54:15;17.10;;;8.50;;
5006;SDS011;2522;50.972;11.046;2022-08-25T03:56:44;11.20;;;8.30;;
5006;SDS011;2522;50.972;11.046;2022-08-25T03:59:11;13.80;;;7.30;;
5006;SDS011;2522;50.972;11.046;2022-08-25T04:01:41;11.97;;;6.97;;
5006;SDS011;2522;50.972;11.046;2022-08-25T04:04:09;10.80;;;6.90;;
5006;SDS011;2522;50.972;11.046;2022-08-25T04:06:39;17.40;;;7.83;;
5006;SDS011;2522;50.972;11.046;2022-08-25T04:09:07;14.20;;;7.57;;
5006;SDS011;2522;50.972;11.046;2022-08-25T04:11:34;21.17;;;7.63;;
5006;SDS011;2522;50.972;11.046;2022-08-25T04:14:01;14.90;;;8.33;;
5006;SDS011;2522;50.972;11.046;2022-08-25T04:16:31;16.90;;;7.70;;
5006;SDS011;2522;50.972;11.046;2022-08-25T04:19:00;15.77;;;7.10;;
5006;SDS011;2522;50.972;11.046;2022-08-25T04:21:33;21.93;;;8.70;;
5006;SDS011;2522;50.972;11.046;2022-08-25T04:24:01;27.03;;;8.13;;
5006;SDS011;2522;50.972;11.046;2022-08-25T04:26:30;22.83;;;7.23;;
5006;SDS011;2522;50.972;11.046;2022-08-25T04:28:59;17.50;;;7.67;;
5006;SDS011;2522;50.972;11.046;2022-08-25T04:31:27;17.50;;;7.80;;
5006;SDS011;2522;50.972;11.046;2022-08-25T04:33:55;20.10;;;7.60;;
5006;SDS011;2522;50.972;11.046;2022-08-25T04:36:22;19.10;;;7.27;;
5006;SDS011;2522;50.972;11.046;2022-08-25T04:38:50;16.10;;;7.70;;
5006;SDS011;2522;50.972;11.046;2022-08-25T04:41:18;20.60;;;8.63;;
5006;SDS011;2522;50.972;11.046;2022-08-25T04:43:47;13.00;;;6.80;;
5006;SDS011;2522;50.972;11.046;2022-08-25T04:46:15;27.80;;;8.80;;
5006;SDS011;2522;50.972;11.046;2022-08-25T04:48:44;16.33;;;8.07;;
5006;SDS011;2522;50.972;11.046;2022-08-25T04:51:13;13.50;;;7.60;;
5006;SDS011;2522;50.972;11.046;2022-08-25T04:53:41;20.77;;;7.43;;
5006;SDS011;2522;50.972;11.046;2022-08-25T04:56:08;15.57;;;7.53;;
5006;SDS011;2522;50.972;11.046;2022-08-25T04:58:43;12.10;;;7.97;;
5006;SDS011;2522;50.972;11.046;2022-08-25T05:01:11;15.27;;;7.53;;
5006;SDS011;2522;50.972;11.046;2022-08-25T05:03:41;17.17;;;6.80;;
5006;SDS011;2522;50.972;11.046;2022-08-25T05:06:09;26.60;;;7.23;;
5006;SDS011;2522;50.972;11.046;2022-08-25T05:08:37;22.63;;;7.10;;
5006;SDS011;2522;50.972;11.046;2022-08-25T05:11:04;27.60;;;9.10;;
5006;SDS011;2522;50.972;11.046;2022-08-25T05:13:31;25.63;;;8.23;;
5006;SDS011;2522;50.972;11.046;2022-08-25T05:16:01;20.10;;;7.00;;
5006;SDS011;2522;50.972;11.046;2022-08-25T05:18:29;24.60;;;7.43;;
5006;SDS011;2522;50.972;11.046;2022-08-25T05:21:00;28.47;;;7.60;;
5006;SDS011;2522;50.972;11.046;2022-08-25T05:23:27;14.00;;;7.80;;
5006;SDS011;2522;50.972;11.046;2022-08-25T05:25:54;32.93;;;7.60;;
5006;SDS011;2522;50.972;11.046;2022-08-25T05:28:21;19.97;;;7.77;;
5006;SDS011;2522;50.972;11.046;2022-08-25T05:30:48;22.23;;;8.43;;
5006;SDS011;2522;50.972;11.046;2022-08-25T05:33:16;17.90;;;8.17;;
5006;SDS011;2522;50.972;11.046;2022-08-25T05:35:44;13.97;;;7.20;;
5006;SDS011;2522;50.972;11.046;2022-08-25T05:38:11;19.13;;;8.77;;
5006;SDS011;2522;50.972;11.046;2022-08-25T05:40:37;20.37;;;7.90;;
5006;SDS011;2522;50.972;11.046;2022-08-25T05:43:04;22.60;;;7.40;;
5006;SDS011;2522;50.972;11.046;2022-08-25T05:45:31;22.07;;;8.37;;
5006;SDS011;2522;50.972;11.046;2022-08-25T05:47:58;18.10;;;7.80;;
5006;SDS011;2522;50.972;11.046;2022-08-25T05:50:26;19.43;;;8.60;;
5006;SDS011;2522;50.972;11.046;2022-08-25T05:52:53;19.17;;;7.73;;
5006;SDS011;2522;50.972;11.046;2022-08-25T05:55:20;20.40;;;8.27;;
5006;SDS011;2522;50.972;11.046;2022-08-25T05:57:46;21.70;;;8.97;;
5006;SDS011;2522;50.972;11.046;2022-08-25T06:00:14;14.87;;;8.17;;
5006;SDS011;2522;50.972;11.046;2022-08-25T06:02:41;17.00;;;7.80;;
5006;SDS011;2522;50.972;11.046;2022-08-25T06:05:10;24.03;;;8.93;;
5006;SDS011;2522;50.972;11.046;2022-08-25T06:07:40;17.60;;;9.30;;
5006;SDS011;2522;50.972;11.046;2022-08-25T06:10:07;19.33;;;7.90;;
5006;SDS011;2522;50.972;11.046;2022-08-25T06:12:38;17.20;;;9.47;;
5006;SDS011;2522;50.972;11.046;2022-08-25T06:15:06;17.03;;;8.73;;
5006;SDS011;2522;50.972;11.046;2022-08-25T06:17:34;19.27;;;9.50;;
5006;SDS011;2522;50.972;11.046;2022-08-25T06:20:05;15.57;;;8.10;;
5006;SDS011;2522;50.972;11.046;2022-08-25T06:22:32;20.87;;;9.90;;
5006;SDS011;2522;50.972;11.046;2022-08-25T06:25:01;18.27;;;10.47;;
5006;SDS011;2522;50.972;11.046;2022-08-25T06:27:28;34.53;;;11.27;;
5006;SDS011;2522;50.972;11.046;2022-08-25T06:29:54;20.13;;;9.90;;
5006;SDS011;2522;50.972;11.046;2022-08-25T06:32:21;20.80;;;11.00;;
5006;SDS011;2522;50.972;11.046;2022-08-25T06:34:48;22.37;;;11.00;;
5006;SDS011;2522;50.972;11.046;2022-08-25T06:37:15;22.27;;;11.63;;
5006;SDS011;2522;50.972;11.046;2022-08-25T06:39:42;20.10;;;11.50;;
5006;SDS011;2522;50.972;11.046;2022-08-25T06:42:11;25.73;;;11.50;;
5006;SDS011;2522;50.972;11.046;2022-08-25T06:44:38;19.93;;;11.63;;
5006;SDS011;2522;50.972;11.046;2022-08-25T06:47:05;32.73;;;12.40;;
5006;SDS011;2522;50.972;11.046;2022-08-25T06:49:32;23.17;;;12.10;;
5006;SDS011;2522;50.972;11.046;2022-08-25T06:51:58;24.43;;;12.07;;
5006;SDS011;2522;50.972;11.046;2022-08-25T06:54:25;24.60;;;12.90;;
5006;SDS011;2522;50.972;11.046;2022-08-25T06:56:52;25.47;;;13.20;;
5006;SDS011;2522;50.972;11.046;2022-08-25T06:59:20;28.10;;;13.13;;
5006;SDS011;2522;50.972;11.046;2022-08-25T07:01:47;23.53;;;12.63;;
5006;SDS011;2522;50.972;11.046;2022-08-25T07:04:14;22.57;;;12.43;;
5006;SDS011;2522;50.972;11.046;2022-08-25T07:06:41;23.73;;;13.13;;
5006;SDS011;2522;50.972;11.046;2022-08-25T07:09:08;26.57;;;13.27;;
5006;SDS011;2522;50.972;11.046;2022-08-25T07:11:36;34.13;;;12.13;;
5006;SDS011;2522;50.972;11.046;2022-08-25T07:14:04;23.50;;;12.80;;
5006;SDS011;2522;50.972;11.046;2022-08-25T07:16:34;26.37;;;13.40;;
5006;SDS011;2522;50.972;11.046;2022-08-25T07:19:01;25.33;;;13.00;;
5006;SDS011;2522;50.972;11.046;2022-08-25T07:21:30;22.60;;;12.80;;
5006;SDS011;2522;50.972;11.046;2022-08-25T07:23:58;21.40;;;11.70;;
5006;SDS011;2522;50.972;11.046;2022-08-25T07:26:26;21.73;;;11.77;;
5006;SDS011;2522;50.972;11.046;2022-08-25T07:28:55;23.87;;;12.13;;
5006;SDS011;2522;50.972;11.046;2022-08-25T07:31:23;29.23;;;10.70;;
5006;SDS011;2522;50.972;11.046;2022-08-25T07:33:52;26.10;;;12.97;;
5006;SDS011;2522;50.972;11.046;2022-08-25T07:36:36;25.67;;;12.70;;
5006;SDS011;2522;50.972;11.046;2022-08-25T07:39:03;24.87;;;13.63;;
5006;SDS011;2522;50.972;11.046;2022-08-25T07:41:30;28.63;;;13.40;;
5006;SDS011;2522;50.972;11.046;2022-08-25T07:43:58;27.50;;;13.40;;
5006;SDS011;2522;50.972;11.046;2022-08-25T07:46:25;30.83;;;12.90;;
5006;SDS011;2522;50.972;11.046;2022-08-25T07:48:54;20.67;;;12.70;;
5006;SDS011;2522;50.972;11.046;2022-08-25T07:51:21;22.50;;;11.63;;
5006;SDS011;2522;50.972;11.046;2022-08-25T07:53:47;28.80;;;10.30;;
5006;SDS011;2522;50.972;11.046;2022-08-25T07:56:14;30.57;;;14.00;;
5006;SDS011;2522;50.972;11.046;2022-08-25T07:58:43;20.97;;;12.20;;
5006;SDS011;2522;50.972;11.046;2022-08-25T08:01:12;26.80;;;11.40;;
5006;SDS011;2522;50.972;11.046;2022-08-25T08:03:40;22.13;;;12.57;;
5006;SDS011;2522;50.972;11.046;2022-08-25T08:06:09;24.60;;;10.67;;
5006;SDS011;2522;50.972;11.046;2022-08-25T08:08:37;22.23;;;12.50;;
5006;SDS011;2522;50.972;11.046;2022-08-25T08:11:12;21.43;;;12.03;;
5006;SDS011;2522;50.972;11.046;2022-08-25T08:13:40;24.43;;;11.37;;
5006;SDS011;2522;50.972;11.046;2022-08-25T08:16:07;24.80;;;12.77;;
5006;SDS011;2522;50.972;11.046;2022-08-25T08:18:34;30.60;;;11.73;;
5006;SDS011;2522;50.972;11.046;2022-08-25T08:21:02;19.87;;;11.20;;
5006;SDS011;2522;50.972;11.046;2022-08-25T08:23:30;23.40;;;13.07;;
5006;SDS011;2522;50.972;11.046;2022-08-25T08:25:57;20.80;;;11.97;;
5006;SDS011;2522;50.972;11.046;2022-08-25T08:28:24;18.33;;;12.10;;
5006;SDS011;2522;50.972;11.046;2022-08-25T08:30:52;22.73;;;12.17;;
5006;SDS011;2522;50.972;11.046;2022-08-25T08:33:19;17.33;;;10.97;;
5006;SDS011;2522;50.972;11.046;2022-08-25T08:35:53;17.63;;;11.93;;
5006;SDS011;2522;50.972;11.046;2022-08-25T08:38:21;26.47;;;13.43;;
5006;SDS011;2522;50.972;11.046;2022-08-25T08:40:52;20.73;;;11.73;;
5006;SDS011;2522;50.972;11.046;2022-08-25T08:43:43;23.90;;;11.00;;
5006;SDS011;2522;50.972;11.046;2022-08-25T08:46:12;20.03;;;10.60;;
5006;SDS011;2522;50.972;11.046;2022-08-25T08:48:42;22.00;;;11.30;;
5006;SDS011;2522;50.972;11.046;2022-08-25T08:51:18;19.00;;;11.20;;
5006;SDS011;2522;50.972;11.046;2022-08-25T08:53:49;22.03;;;10.60;;
5006;SDS011;2522;50.972;11.046;2022-08-25T08:56:22;21.03;;;11.60;;
5006;SDS011;2522;50.972;11.046;2022-08-25T08:58:51;18.60;;;10.20;;
5006;SDS011;2522;50.972;11.046;2022-08-25T09:01:22;19.37;;;10.87;;
5006;SDS011;2522;50.972;11.046;2022-08-25T09:03:54;18.17;;;10.20;;
5006;SDS011;2522;50.972;11.046;2022-08-25T09:06:26;20.23;;;9.63;;
5006;SDS011;2522;50.972;11.046;2022-08-25T09:08:57;18.73;;;9.37;;
5006;SDS011;2522;50.972;11.046;2022-08-25T09:11:29;24.80;;;11.57;;
5006;SDS011;2522;50.972;11.046;2022-08-25T09:14:12;17.63;;;10.10;;
5006;SDS011;2522;50.972;11.046;2022-08-25T09:16:51;32.23;;;11.43;;
5006;SDS011;2522;50.972;11.046;2022-08-25T09:19:30;13.97;;;9.07;;
5006;SDS011;2522;50.972;11.046;2022-08-25T09:22:08;15.03;;;9.90;;
5006;SDS011;2522;50.972;11.046;2022-08-25T09:24:45;23.50;;;12.23;;
5006;SDS011;2522;50.972;11.046;2022-08-25T09:27:22;14.80;;;9.13;;
5006;SDS011;2522;50.972;11.046;2022-08-25T09:29:58;20.27;;;9.63;;
5006;SDS011;2522;50.972;11.046;2022-08-25T09:32:27;16.27;;;8.67;;
5006;SDS011;2522;50.972;11.046;2022-08-25T09:34:55;18.50;;;10.77;;
5006;SDS011;2522;50.972;11.046;2022-08-25T09:37:22;29.63;;;10.73;;
5006;SDS011;2522;50.972;11.046;2022-08-25T09:39:49;16.03;;;10.03;;
5006;SDS011;2522;50.972;11.046;2022-08-25T09:42:17;32.57;;;11.23;;
5006;SDS011;2522;50.972;11.046;2022-08-25T09:44:46;14.53;;;8.90;;
5006;SDS011;2522;50.972;11.046;2022-08-25T09:47:21;15.30;;;10.10;;
5006;SDS011;2522;50.972;11.046;2022-08-25T09:49:50;16.97;;;9.80;;
5006;SDS011;2522;50.972;11.046;2022-08-25T09:52:31;27.57;;;9.97;;
5006;SDS011;2522;50.972;11.046;2022-08-25T09:55:01;19.80;;;10.37;;
5006;SDS011;2522;50.972;11.046;2022-08-25T09:57:56;24.40;;;10.17;;
5006;SDS011;2522;50.972;11.046;2022-08-25T10:00:26;16.63;;;9.07;;
5006;SDS011;2522;50.972;11.046;2022-08-25T10:03:08;21.97;;;10.30;;
5006;SDS011;2522;50.972;11.046;2022-08-25T10:05:38;15.93;;;9.20;;
5006;SDS011;2522;50.972;11.046;2022-08-25T10:08:23;26.00;;;9.93;;
5006;SDS011;2522;50.972;11.046;2022-08-25T10:10:55;17.23;;;8.80;;
5006;SDS011;2522;50.972;11.046;2022-08-25T10:13:31;16.37;;;9.87;;
5006;SDS011;2522;50.972;11.046;2022-08-25T10:16:06;14.97;;;9.70;;
5006;SDS011;2522;50.972;11.046;2022-08-25T10:18:35;14.20;;;9.20;;
5006;SDS011;2522;50.972;11.046;2022-08-25T10:21:06;13.23;;;8.60;;
5006;SDS011;2522;50.972;11.046;2022-08-25T10:23:37;18.60;;;10.50;;
5006;SDS011;2522;50.972;11.046;2022-08-25T10:26:10;17.87;;;8.10;;
5006;SDS011;2522;50.972;11.046;2022-08-25T10:28:43;20.70;;;10.10;;
5006;SDS011;2522;50.972;11.046;2022-08-25T10:31:22;19.53;;;9.63;;
5006;SDS011;2522;50.972;11.046;2022-08-25T10:33:56;16.07;;;8.70;;
5006;SDS011;2522;50.972;11.046;2022-08-25T10:36:35;15.37;;;8.60;;
5006;SDS011;2522;50.972;11.046;2022-08-25T10:39:12;13.90;;;9.40;;
5006;SDS011;2522;50.972;11.046;2022-08-25T10:41:53;11.53;;;8.17;;
5006;SDS011;2522;50.972;11.046;2022-08-25T10:44:29;21.93;;;8.90;;
5006;SDS011;2522;50.972;11.046;2022-08-25T10:47:31;10.90;;;6.93;;
5006;SDS011;2522;50.972;11.046;2022-08-25T10:50:11;17.33;;;10.30;;
5006;SDS011;2522;50.972;11.046;2022-08-25T10:52:47;17.50;;;9.20;;
5006;SDS011;2522;50.972;11.046;2022-08-25T10:55:27;17.13;;;8.80;;
5006;SDS011;2522;50.972;11.046;2022-08-25T10:58:02;14.00;;;8.60;;
5006;SDS011;2522;50.972;11.046;2022-08-25T11:00:39;15.87;;;8.00;;
5006;SDS011;2522;50.972;11.046;2022-08-25T11:03:19;12.70;;;7.90;;
5006;SDS011;2522;50.972;11.046;2022-08-25T11:05:59;24.90;;;7.73;;
5006;SDS011;2522;50.972;11.046;2022-08-25T11:08:31;9.13;;;6.87;;
5006;SDS011;2522;50.972;11.046;2022-08-25T11:11:01;15.97;;;7.63;;
5006;SDS011;2522;50.972;11.046;2022-08-25T11:13:37;18.57;;;8.90;;
5006;SDS011;2522;50.972;11.046;2022-08-25T11:16:10;14.60;;;8.60;;
5006;SDS011;2522;50.972;11.046;2022-08-25T11:18:43;14.20;;;8.07;;
5006;SDS011;2522;50.972;11.046;2022-08-25T11:21:15;12.40;;;8.30;;
5006;SDS011;2522;50.972;11.046;2022-08-25T11:23:49;9.47;;;7.30;;
5006;SDS011;2522;50.972;11.046;2022-08-25T11:26:25;17.30;;;7.40;;
5006;SDS011;2522;50.972;11.046;2022-08-25T11:29:00;11.80;;;7.17;;
5006;SDS011;2522;50.972;11.046;2022-08-25T11:31:29;12.83;;;7.07;;
5006;SDS011;2522;50.972;11.046;2022-08-25T11:34:05;11.43;;;7.10;;
5006;SDS011;2522;50.972;11.046;2022-08-25T11:36:35;12.53;;;7.27;;
5006;SDS011;2522;50.972;11.046;2022-08-25T11:39:08;8.77;;;6.97;;
5006;SDS011;2522;50.972;11.046;2022-08-25T11:41:43;10.93;;;7.00;;
5006;SDS011;2522;50.972;11.046;2022-08-25T11:44:31;18.70;;;7.45;;
5006;SDS011;2522;50.972;11.046;2022-08-25T11:47:26;11.32;;;8.25;;
5006;SDS011;2522;50.972;11.046;2022-08-25T11:50:24;9.68;;;7.20;;
5006;SDS011;2522;50.972;11.046;2022-08-25T11:52:55;12.20;;;7.80;;
5006;SDS011;2522;50.972;11.046;2022-08-25T11:55:26;14.25;;;7.47;;
5006;SDS011;2522;50.972;11.046;2022-08-25T12:04:15;13.33;;;6.73;;
5006;SDS011;2522;50.972;11.046;2022-08-25T12:07:22;11.57;;;7.10;;
5006;SDS011;2522;50.972;11.046;2022-08-25T12:10:10;15.32;;;6.80;;
5006;SDS011;2522;50.972;11.046;2022-08-25T12:15:57;13.50;;;7.55;;
5006;SDS011;2522;50.972;11.046;2022-08-25T12:18:39;12.13;;;7.28;;
5006;SDS011;2522;50.972;11.046;2022-08-25T12:21:10;11.80;;;7.03;;
5006;SDS011;2522;50.972;11.046;2022-08-25T12:23:43;12.27;;;6.63;;
5006;SDS011;2522;50.972;11.046;2022-08-25T12:26:31;13.95;;;7.50;;
5006;SDS011;2522;50.972;11.046;2022-08-25T12:29:06;20.92;;;7.57;;
5006;SDS011;2522;50.972;11.046;2022-08-25T12:31:44;12.60;;;7.07;;
5006;SDS011;2522;50.972;11.046;2022-08-25T12:34:39;14.40;;;7.82;;
5006;SDS011;2522;50.972;11.046;2022-08-25T12:37:16;11.07;;;7.78;;
